Time;durP1;ratioP1;P1;durP2;ratioP2;P2;SDS_P1;SDS_P2;PMS_P1;PMS_P2;Temp;Humidity;BMP_temperature;BMP_pressure;BME280_temperature;BME280_humidity;BME280_pressure;Samples;Min_cycle;Max_cycle;Signal;HPM_P1;HPM_P2
2022/04/07 00:02:00;;;;;;;7.40;2.40;;;10.50;75.50;;;;;;4957034;29;20039;-84
2022/04/07 00:04:26;;;;;;;7.63;2.05;;;10.30;75.40;;;;;;4949425;28;20102;-82
2022/04/07 00:06:52;;;;;;;8.20;2.95;;;10.30;75.60;;;;;;4940131;29;20392;-83
2022/04/07 00:09:17;;;;;;;11.25;3.63;;;10.00;75.50;;;;;;4938294;29;20412;-83
2022/04/07 00:11:43;;;;;;;10.70;3.22;;;10.60;76.00;;;;;;4953425;29;20043;-83
2022/04/07 00:14:09;;;;;;;7.60;3.00;;;10.20;75.80;;;;;;4936471;29;20051;-84
2022/04/07 00:16:34;;;;;;;8.70;2.78;;;10.50;76.00;;;;;;4946328;28;20126;-84
2022/04/07 00:19:01;;;;;;;8.93;3.00;;;10.40;76.10;;;;;;4956662;29;20043;-83
2022/04/07 00:21:35;;;;;;;7.43;2.83;;;10.20;76.00;;;;;;4941456;29;20043;-83
2022/04/07 00:24:05;;;;;;;11.02;3.33;;;10.60;76.30;;;;;;4953737;29;20475;-84
2022/04/07 00:26:32;;;;;;;5.32;2.58;;;10.30;76.20;;;;;;4956684;29;20035;-84
2022/04/07 00:28:58;;;;;;;6.07;2.45;;;10.30;76.20;;;;;;4951819;29;20392;-84
2022/04/07 00:31:24;;;;;;;4.88;2.10;;;10.50;76.30;;;;;;4956533;29;20128;-84
2022/04/07 00:33:50;;;;;;;7.55;1.75;;;10.20;76.00;;;;;;4951896;29;20481;-84
2022/04/07 00:36:16;;;;;;;6.80;2.28;;;10.10;75.70;;;;;;4952363;29;20048;-85
2022/04/07 00:38:41;;;;;;;7.30;2.20;;;10.50;75.80;;;;;;4955685;29;20475;-84
2022/04/07 00:41:07;;;;;;;4.90;1.75;;;10.40;75.80;;;;;;4956541;29;20051;-84
2022/04/07 00:43:34;;;;;;;6.18;2.33;;;10.60;75.90;;;;;;4965200;28;20049;-84
2022/04/07 00:46:01;;;;;;;6.93;3.40;;;10.10;75.80;;;;;;4940481;29;20039;-84
2022/04/07 00:48:27;;;;;;;7.78;2.95;;;10.10;76.40;;;;;;4936982;29;20042;-84
2022/04/07 00:50:57;;;;;;;8.30;2.92;;;10.00;75.90;;;;;;4953655;29;20047;-85
2022/04/07 00:53:23;;;;;;;6.57;3.63;;;10.50;76.30;;;;;;4971224;28;20051;-84
2022/04/07 00:55:52;;;;;;;7.38;3.10;;;10.10;76.10;;;;;;4949321;29;20547;-85
2022/04/07 00:58:19;;;;;;;7.43;2.95;;;10.30;76.30;;;;;;4940365;29;20101;-85
2022/04/07 01:00:45;;;;;;;9.13;3.90;;;10.00;76.10;;;;;;4955916;29;20094;-85
2022/04/07 01:03:12;;;;;;;8.63;3.35;;;10.00;76.10;;;;;;4949387;29;20123;-85
2022/04/07 01:05:38;;;;;;;8.85;3.15;;;10.00;76.20;;;;;;4949926;29;20039;-85
2022/04/07 01:08:06;;;;;;;6.90;3.35;;;10.00;76.30;;;;;;4949733;29;20601;-84
2022/04/07 01:10:32;;;;;;;9.10;3.72;;;10.00;76.40;;;;;;4939006;29;20087;-84
2022/04/07 01:12:58;;;;;;;11.85;4.85;;;10.30;76.70;;;;;;4956321;29;20051;-84
2022/04/07 01:15:23;;;;;;;9.65;4.72;;;10.10;76.60;;;;;;4943173;29;20054;-84
2022/04/07 01:17:49;;;;;;;9.07;4.85;;;10.00;76.70;;;;;;4937318;29;20039;-84
2022/04/07 01:20:15;;;;;;;11.05;5.03;;;10.20;76.90;;;;;;4949314;29;20039;-85
2022/04/07 01:22:44;;;;;;;11.95;4.05;;;10.30;76.90;;;;;;4956202;29;20495;-82
2022/04/07 01:25:10;;;;;;;8.30;4.00;;;10.10;76.80;;;;;;4955331;29;20039;-82
2022/04/07 01:27:36;;;;;;;12.00;3.92;;;10.00;76.80;;;;;;4939891;29;20389;-83
2022/04/07 01:30:03;;;;;;;12.05;4.25;;;10.10;76.80;;;;;;4939696;29;20042;-83
2022/04/07 01:32:41;;;;;;;10.85;4.50;;;10.00;76.70;;;;;;4959110;28;20060;-83
2022/04/07 01:35:08;;;;;;;9.75;4.13;;;10.00;76.70;;;;;;4970629;28;20047;-84
2022/04/07 01:37:36;;;;;;;8.15;3.40;;;10.00;76.70;;;;;;4960094;28;20054;-84
2022/04/07 01:40:03;;;;;;;10.52;3.40;;;10.00;76.70;;;;;;4980686;28;20038;-83
2022/04/07 01:42:30;;;;;;;10.73;3.40;;;10.00;76.50;;;;;;4964022;28;20050;-83
2022/04/07 01:45:00;;;;;;;11.68;3.70;;;10.10;76.50;;;;;;4942173;28;20047;-83
2022/04/07 01:47:26;;;;;;;11.45;2.80;;;10.20;76.50;;;;;;4950265;28;20134;-83
2022/04/07 01:49:57;;;;;;;9.23;3.17;;;10.00;76.30;;;;;;4956199;28;20115;-83
2022/04/07 01:52:23;;;;;;;10.50;3.63;;;10.00;76.30;;;;;;4972420;28;20048;-84
2022/04/07 01:54:52;;;;;;;10.32;3.17;;;10.30;76.80;;;;;;4947404;29;20039;-83
2022/04/07 01:57:23;;;;;;;10.40;3.00;;;10.00;76.70;;;;;;4974389;28;20053;-83
2022/04/07 01:59:53;;;;;;;11.77;3.50;;;10.00;76.20;;;;;;4952815;28;20444;-84
2022/04/07 02:02:21;;;;;;;10.32;3.08;;;9.90;76.20;;;;;;4957929;28;20043;-85
2022/04/07 02:04:55;;;;;;;13.00;3.80;;;10.10;76.30;;;;;;4961751;28;20406;-83
2022/04/07 02:07:21;;;;;;;9.95;2.92;;;10.00;76.20;;;;;;4963089;28;20047;-84
2022/04/07 02:09:47;;;;;;;10.20;3.40;;;10.00;76.20;;;;;;4964143;28;20103;-84
2022/04/07 02:12:14;;;;;;;10.82;3.53;;;10.00;76.20;;;;;;4955731;28;20043;-84
2022/04/07 02:14:40;;;;;;;6.68;3.03;;;10.00;76.20;;;;;;4957493;28;20058;-85
2022/04/07 02:17:06;;;;;;;8.35;3.10;;;10.10;76.20;;;;;;4949399;28;20047;-85
2022/04/07 02:19:32;;;;;;;7.40;3.05;;;10.00;76.20;;;;;;4961756;28;20425;-84
2022/04/07 02:21:58;;;;;;;9.70;3.50;;;10.40;76.40;;;;;;4966616;28;20078;-84
2022/04/07 02:24:24;;;;;;;8.27;2.88;;;10.00;76.10;;;;;;4956367;28;20114;-85
2022/04/07 02:26:49;;;;;;;9.60;4.47;;;10.20;76.70;;;;;;4942132;29;20046;-84
2022/04/07 02:29:15;;;;;;;14.52;3.90;;;10.00;76.10;;;;;;4944590;28;20138;-84
2022/04/07 02:31:41;;;;;;;10.68;3.50;;;9.70;75.90;;;;;;4948706;28;20051;-84
2022/04/07 02:34:07;;;;;;;9.73;3.67;;;10.40;76.40;;;;;;4965219;28;20058;-83
2022/04/07 02:36:33;;;;;;;10.15;3.33;;;9.90;76.10;;;;;;4951416;28;20504;-84
2022/04/07 02:38:59;;;;;;;11.82;3.35;;;10.00;76.20;;;;;;4936410;29;20050;-84
2022/04/07 02:41:24;;;;;;;11.43;3.50;;;10.00;76.20;;;;;;4968799;28;20042;-83
2022/04/07 02:43:51;;;;;;;8.20;3.53;;;10.00;76.20;;;;;;4975207;28;20058;-83
2022/04/07 02:46:17;;;;;;;18.55;3.97;;;9.90;76.20;;;;;;4969316;28;20494;-82
2022/04/07 02:48:42;;;;;;;11.23;3.85;;;10.00;76.30;;;;;;4939540;28;20069;-83
2022/04/07 02:51:08;;;;;;;11.40;4.07;;;9.90;76.30;;;;;;4960657;28;20042;-83
2022/04/07 02:53:34;;;;;;;14.70;4.05;;;10.20;76.50;;;;;;4962180;28;20051;-83
2022/04/07 02:55:59;;;;;;;12.88;3.38;;;10.40;77.10;;;;;;4938032;28;20046;-83
2022/04/07 02:58:28;;;;;;;12.15;3.95;;;9.90;76.30;;;;;;4939828;28;20074;-83
2022/04/07 03:00:56;;;;;;;12.63;4.15;;;9.90;76.40;;;;;;4943751;28;20564;-83
2022/04/07 03:03:22;;;;;;;15.30;3.15;;;9.90;76.50;;;;;;4966520;28;20043;-84
2022/04/07 03:05:48;;;;;;;12.70;3.58;;;10.40;76.80;;;;;;4957115;28;20053;-84
2022/04/07 03:08:14;;;;;;;11.02;3.35;;;9.90;76.50;;;;;;4939972;29;20055;-84
2022/04/07 03:10:40;;;;;;;10.85;3.60;;;10.20;76.70;;;;;;4934422;28;20043;-85
2022/04/07 03:13:05;;;;;;;12.40;2.97;;;9.90;76.60;;;;;;4972715;28;20058;-84
2022/04/07 03:15:31;;;;;;;9.95;2.90;;;9.90;76.60;;;;;;4955758;28;20047;-84
2022/04/07 03:17:57;;;;;;;11.10;2.95;;;10.40;76.90;;;;;;4940793;28;20081;-85
2022/04/07 03:20:23;;;;;;;9.50;2.70;;;10.00;76.60;;;;;;4957967;28;20043;-84
2022/04/07 03:22:48;;;;;;;9.63;2.97;;;10.20;76.80;;;;;;4925192;29;20047;-84
2022/04/07 03:25:14;;;;;;;8.02;2.33;;;9.80;76.50;;;;;;4935019;28;20055;-85
2022/04/07 03:27:40;;;;;;;9.43;2.60;;;10.30;76.90;;;;;;4957012;28;20372;-84
2022/04/07 03:30:06;;;;;;;6.60;2.20;;;9.90;76.60;;;;;;4961299;28;20043;-85
2022/04/07 03:32:32;;;;;;;9.77;2.90;;;9.80;76.60;;;;;;4953250;28;20460;-84
2022/04/07 03:34:58;;;;;;;8.52;3.03;;;10.40;77.00;;;;;;4974547;28;20130;-85
2022/04/07 03:37:23;;;;;;;7.75;2.15;;;9.80;76.60;;;;;;4945181;29;20094;-85
2022/04/07 03:39:49;;;;;;;10.35;3.55;;;10.20;76.90;;;;;;4938500;29;20051;-85
2022/04/07 03:42:16;;;;;;;10.23;3.20;;;10.40;76.90;;;;;;4941616;28;20074;-85
2022/04/07 03:44:41;;;;;;;7.80;2.97;;;9.90;76.60;;;;;;4957017;28;20050;-84
2022/04/07 03:47:07;;;;;;;12.15;3.13;;;9.80;76.50;;;;;;4938939;28;20395;-85
2022/04/07 03:49:33;;;;;;;13.23;2.90;;;10.20;76.80;;;;;;4938211;29;20051;-84
2022/04/07 03:51:58;;;;;;;13.35;3.08;;;9.80;76.90;;;;;;4956944;28;20138;-85
2022/04/07 03:54:24;;;;;;;15.95;3.97;;;9.80;76.50;;;;;;4969907;28;20078;-84
2022/04/07 03:56:50;;;;;;;10.38;3.05;;;10.10;76.70;;;;;;4953633;28;20126;-84
2022/04/07 03:59:16;;;;;;;12.43;3.45;;;9.90;76.70;;;;;;4937201;29;20054;-84
2022/04/07 04:01:41;;;;;;;14.80;3.17;;;10.40;77.00;;;;;;4956068;28;20082;-84
2022/04/07 04:04:07;;;;;;;12.40;3.97;;;9.80;76.60;;;;;;4940412;28;20034;-83
2022/04/07 04:06:34;;;;;;;14.40;4.55;;;9.90;76.60;;;;;;4954731;28;20545;-84
2022/04/07 04:09:00;;;;;;;16.90;4.60;;;9.80;76.50;;;;;;4926525;28;20520;-84
2022/04/07 04:11:25;;;;;;;17.23;4.03;;;9.80;76.50;;;;;;4943271;28;20047;-84
2022/04/07 04:13:51;;;;;;;14.98;4.25;;;9.90;76.60;;;;;;4925318;28;20050;-84
2022/04/07 04:16:17;;;;;;;21.23;4.05;;;9.90;76.60;;;;;;4954192;29;20043;-85
2022/04/07 04:18:46;;;;;;;14.25;4.13;;;10.30;76.80;;;;;;4945674;28;20039;-85
2022/04/07 04:21:12;;;;;;;19.50;4.60;;;9.80;76.90;;;;;;4973832;28;20082;-84
2022/04/07 04:23:41;;;;;;;20.33;4.65;;;9.80;76.50;;;;;;4941740;29;20488;-86
2022/04/07 04:26:06;;;;;;;21.88;4.72;;;9.80;76.50;;;;;;4954954;28;20057;-85
2022/04/07 04:28:32;;;;;;;19.63;4.53;;;9.80;76.50;;;;;;4974328;28;20387;-85
2022/04/07 04:30:58;;;;;;;19.42;4.25;;;9.80;76.50;;;;;;4958806;28;20061;-85
2022/04/07 04:33:24;;;;;;;15.63;4.75;;;9.80;76.50;;;;;;4959819;28;20129;-84
2022/04/07 04:35:49;;;;;;;19.55;5.05;;;9.80;76.40;;;;;;4973747;28;20085;-85
2022/04/07 04:38:15;;;;;;;17.38;3.60;;;9.80;76.40;;;;;;4959940;28;20482;-85
2022/04/07 04:40:41;;;;;;;19.45;4.57;;;9.80;76.30;;;;;;4956831;29;20048;-84
2022/04/07 04:43:06;;;;;;;18.63;4.10;;;9.80;76.30;;;;;;4956420;28;20042;-84
2022/04/07 04:45:32;;;;;;;18.45;4.40;;;9.80;76.30;;;;;;4969355;28;20039;-84
2022/04/07 04:47:58;;;;;;;15.35;3.63;;;10.20;76.50;;;;;;4965641;28;20061;-85
2022/04/07 04:50:25;;;;;;;19.67;5.13;;;9.80;76.40;;;;;;4941192;29;20047;-87
2022/04/07 04:52:50;;;;;;;16.35;4.35;;;10.30;76.70;;;;;;4962772;28;20050;-84
2022/04/07 04:55:16;;;;;;;14.93;3.58;;;10.20;76.60;;;;;;4954973;28;20050;-86
2022/04/07 04:57:42;;;;;;;16.10;3.83;;;9.80;76.80;;;;;;4953443;28;20042;-87
2022/04/07 05:00:08;;;;;;;12.23;3.13;;;9.80;76.40;;;;;;4958203;28;20391;-85
2022/04/07 05:02:34;;;;;;;15.77;3.58;;;9.80;76.40;;;;;;4975504;28;20049;-86
2022/04/07 05:04:59;;;;;;;14.10;3.80;;;9.80;76.40;;;;;;4964040;28;20125;-86
2022/04/07 05:07:25;;;;;;;14.43;3.75;;;9.80;76.60;;;;;;4959553;28;21944;-86
2022/04/07 05:09:55;;;;;;;18.98;4.10;;;10.10;76.90;;;;;;4942744;28;20050;-85
2022/04/07 05:12:21;;;;;;;17.92;4.78;;;9.80;76.90;;;;;;4950802;28;20078;-86
2022/04/07 05:14:47;;;;;;;15.20;4.15;;;9.70;76.90;;;;;;4942465;28;20075;-86
2022/04/07 05:17:12;;;;;;;15.38;4.00;;;9.70;76.90;;;;;;4948796;28;20035;-87
2022/04/07 05:19:38;;;;;;;20.55;4.85;;;9.70;77.00;;;;;;4962001;28;20078;-86
2022/04/07 05:22:04;;;;;;;19.23;4.43;;;9.70;77.10;;;;;;4941457;29;20043;-87
2022/04/07 05:24:30;;;;;;;14.88;4.28;;;10.00;77.30;;;;;;4940387;29;20407;-87
2022/04/07 05:26:56;;;;;;;11.63;4.15;;;9.90;77.30;;;;;;4943140;28;20057;-88
2022/04/07 05:29:22;;;;;;;15.32;4.60;;;9.70;77.20;;;;;;4936214;29;20050;-87
2022/04/07 05:31:47;;;;;;;15.10;3.72;;;10.00;77.40;;;;;;4957765;28;20375;-88
2022/04/07 05:34:13;;;;;;;4.13;0.90;;;10.10;77.50;;;;;;4956300;28;20137;-89
2022/04/07 05:36:40;;;;;;;7.57;0.80;;;9.70;76.30;;;;;;4976687;28;20085;-89
2022/04/07 05:39:06;;;;;;;6.57;0.95;;;10.00;72.90;;;;;;4947455;28;20058;-90
2022/04/07 05:41:32;;;;;;;1.50;0.63;;;9.20;70.90;;;;;;4965601;28;20038;-88
2022/04/07 05:43:57;;;;;;;4.82;0.80;;;9.50;71.20;;;;;;4969803;28;20043;-88
2022/04/07 05:46:23;;;;;;;7.10;1.40;;;8.80;71.20;;;;;;4940334;29;20050;-88
2022/04/07 05:48:49;;;;;;;3.70;0.70;;;8.70;71.30;;;;;;4949996;29;20038;-87
2022/04/07 05:51:14;;;;;;;3.40;0.82;;;8.70;72.10;;;;;;4943235;28;20375;-87
2022/04/07 05:53:40;;;;;;;3.85;0.95;;;8.60;72.50;;;;;;4959660;28;20126;-88
2022/04/07 05:56:06;;;;;;;6.50;1.65;;;8.60;72.70;;;;;;4959742;28;20114;-88
2022/04/07 05:58:41;;;;;;;4.45;1.23;;;9.00;73.20;;;;;;4958573;28;20051;-87
2022/04/07 06:01:06;;;;;;;4.95;1.35;;;8.70;73.10;;;;;;4945460;28;20142;-88
2022/04/07 06:03:32;;;;;;;4.63;0.80;;;8.90;73.30;;;;;;4942176;28;20121;-88
2022/04/07 06:05:58;;;;;;;2.67;0.90;;;8.80;73.30;;;;;;4940453;29;20047;-88
2022/04/07 06:08:24;;;;;;;4.22;1.02;;;9.00;73.40;;;;;;4940160;29;20456;-87
2022/04/07 06:10:50;;;;;;;3.83;0.95;;;8.90;73.40;;;;;;4957527;28;20129;-88
2022/04/07 06:13:15;;;;;;;3.50;0.85;;;8.40;73.10;;;;;;4955848;29;20396;-88
2022/04/07 06:15:42;;;;;;;5.07;1.10;;;8.70;73.30;;;;;;4958172;28;20047;-89
2022/04/07 06:18:10;;;;;;;5.28;1.08;;;8.70;73.50;;;;;;4993387;23;20550;-89
2022/04/07 06:20:42;;;;;;;;;;;8.70;73.60;;;;;;4950390;28;20468;-89
2022/04/07 06:23:09;;;;;;;5.38;1.25;;;8.30;73.20;;;;;;4958116;28;19969;-87
2022/04/07 06:25:35;;;;;;;7.63;1.45;;;8.70;73.70;;;;;;4953078;28;20129;-88
2022/04/07 06:28:02;;;;;;;4.07;0.80;;;8.70;73.60;;;;;;4958672;28;20444;-87
2022/04/07 06:30:28;;;;;;;4.07;1.20;;;8.30;73.30;;;;;;4947730;28;20487;-87
2022/04/07 06:32:55;;;;;;;6.25;0.85;;;8.60;73.60;;;;;;4973501;28;20049;-87
2022/04/07 06:35:21;;;;;;;3.60;0.70;;;8.20;73.30;;;;;;4958042;28;20070;-85
2022/04/07 06:37:55;;;;;;;3.28;0.70;;;8.20;73.30;;;;;;4958606;28;20081;-87
2022/04/07 06:40:30;;;;;;;3.33;0.80;;;8.10;73.10;;;;;;4965810;28;20062;-85
2022/04/07 06:42:58;;;;;;;2.53;0.70;;;8.10;73.50;;;;;;4953209;28;20104;-85
2022/04/07 06:49:05;;;;;;;5.25;0.82;;;8.20;73.20;;;;;;4956761;29;20498;-85
2022/04/07 06:51:30;;;;;;;3.35;0.70;;;8.10;73.30;;;;;;4927273;29;20048;-89
2022/04/07 06:54:04;;;;;;;2.60;0.40;;;8.10;72.80;;;;;;4962206;29;20047;-90
2022/04/07 06:56:29;;;;;;;4.32;0.50;;;8.30;72.80;;;;;;4939704;28;20059;-89
2022/04/07 06:58:55;;;;;;;4.53;0.73;;;8.50;73.00;;;;;;4957768;28;20042;-87
2022/04/07 07:01:21;;;;;;;2.15;0.65;;;8.10;72.80;;;;;;4957067;28;20077;-88
2022/04/07 07:03:47;;;;;;;4.75;0.65;;;8.10;72.70;;;;;;4959138;28;20089;-88
2022/04/07 07:06:13;;;;;;;3.22;0.60;;;7.90;72.70;;;;;;4958146;28;20082;-88
2022/04/07 07:08:40;;;;;;;2.85;0.70;;;8.00;72.80;;;;;;4958058;28;20079;-89
2022/04/07 07:11:06;;;;;;;4.00;0.80;;;8.00;72.90;;;;;;4945475;29;20047;-88
2022/04/07 07:13:33;;;;;;;4.28;0.90;;;8.10;73.00;;;;;;4938807;29;20126;-88
2022/04/07 07:16:17;;;;;;;4.28;0.90;;;8.00;72.90;;;;;;4939205;29;20483;-89
2022/04/07 07:18:43;;;;;;;3.30;0.70;;;8.00;72.50;;;;;;4927795;28;20046;-88
2022/04/07 07:21:08;;;;;;;1.55;0.50;;;8.00;72.70;;;;;;4964397;28;20404;-87
2022/04/07 07:23:34;;;;;;;3.55;0.75;;;8.00;72.70;;;;;;4934944;28;20042;-87
2022/04/07 07:26:00;;;;;;;2.67;0.63;;;8.30;72.90;;;;;;4932764;29;20137;-88
2022/04/07 07:28:26;;;;;;;7.38;1.35;;;8.00;72.50;;;;;;4939194;29;20051;-87
2022/04/07 07:30:52;;;;;;;3.42;0.90;;;8.10;72.60;;;;;;4957022;28;20039;-87
2022/04/07 07:33:17;;;;;;;5.32;0.95;;;8.50;72.90;;;;;;4939019;29;20075;-87
2022/04/07 07:35:45;;;;;;;4.32;1.00;;;8.10;72.60;;;;;;4926186;29;20044;-87
2022/04/07 07:38:11;;;;;;;5.07;1.15;;;8.60;72.80;;;;;;4939035;29;20043;-89
2022/04/07 07:40:37;;;;;;;6.43;1.05;;;8.10;72.60;;;;;;4941373;28;20392;-87
2022/04/07 07:43:03;;;;;;;3.88;0.70;;;8.50;73.00;;;;;;4942147;28;20064;-88
2022/04/07 07:45:33;;;;;;;4.32;0.77;;;8.20;72.80;;;;;;4941568;28;20514;-88
2022/04/07 07:47:59;;;;;;;4.07;0.90;;;8.10;72.90;;;;;;4934976;28;20051;-86
2022/04/07 07:50:25;;;;;;;4.97;0.80;;;8.60;73.10;;;;;;4955924;28;20082;-88
2022/04/07 07:52:50;;;;;;;5.35;0.80;;;8.10;72.80;;;;;;4956122;29;20119;-88
2022/04/07 07:55:17;;;;;;;2.45;0.85;;;8.10;72.70;;;;;;4939048;28;20507;-88
2022/04/07 07:57:43;;;;;;;1.95;0.60;;;8.60;73.00;;;;;;4938789;29;20043;-90
2022/04/07 08:00:10;;;;;;;3.20;0.52;;;8.10;72.80;;;;;;4960064;29;20401;-90
2022/04/07 08:02:37;;;;;;;5.32;0.65;;;8.20;72.90;;;;;;4945778;29;20039;-89
2022/04/07 08:05:03;;;;;;;4.00;1.25;;;8.40;73.10;;;;;;4942779;29;20043;-88
2022/04/07 08:07:29;;;;;;;1.73;0.50;;;8.20;72.80;;;;;;4958401;28;20049;-89
2022/04/07 08:09:56;;;;;;;1.42;0.65;;;8.20;72.80;;;;;;4961817;28;20125;-88
2022/04/07 08:12:25;;;;;;;2.58;0.50;;;8.20;72.80;;;;;;4961947;28;20090;-89
2022/04/07 08:14:51;;;;;;;3.67;0.55;;;8.70;73.10;;;;;;4984372;28;20054;-89
2022/04/07 08:17:17;;;;;;;3.58;0.68;;;8.70;73.10;;;;;;4954808;28;20126;-89
2022/04/07 08:19:43;;;;;;;2.33;0.57;;;8.30;72.90;;;;;;4966948;28;20101;-88
2022/04/07 08:22:09;;;;;;;3.40;0.70;;;8.30;72.80;;;;;;4946652;29;20051;-88
2022/04/07 08:24:35;;;;;;;3.72;0.95;;;8.80;73.20;;;;;;4946389;28;20046;-88
2022/04/07 08:27:01;;;;;;;5.35;1.05;;;8.60;73.20;;;;;;4951827;28;20108;-88
2022/04/07 08:29:27;;;;;;;2.25;0.98;;;8.50;73.30;;;;;;4972522;28;20087;-89
2022/04/07 08:31:53;;;;;;;2.42;0.50;;;8.50;73.40;;;;;;4966836;28;20035;-87
2022/04/07 08:34:19;;;;;;;2.67;0.85;;;9.00;74.00;;;;;;4960870;28;20049;-88
2022/04/07 08:36:46;;;;;;;4.07;1.23;;;9.40;74.50;;;;;;4969973;28;20039;-87
2022/04/07 08:39:11;;;;;;;1.85;0.50;;;9.60;74.60;;;;;;4978232;28;20046;-87
2022/04/07 08:41:39;;;;;;;2.78;0.75;;;9.40;74.20;;;;;;4960116;28;20517;-87
2022/04/07 08:44:04;;;;;;;1.27;0.63;;;9.70;73.90;;;;;;4960410;28;20469;-87
2022/04/07 08:46:32;;;;;;;4.35;0.60;;;10.00;73.60;;;;;;4941006;28;20079;-86
2022/04/07 08:49:01;;;;;;;2.78;0.60;;;10.70;73.40;;;;;;4958107;29;20047;-87
2022/04/07 08:51:29;;;;;;;4.88;0.80;;;10.50;71.80;;;;;;4964689;28;20047;-86
2022/04/07 08:53:55;;;;;;;4.47;0.70;;;11.00;71.60;;;;;;4953522;28;20137;-85
2022/04/07 08:56:23;;;;;;;3.67;0.70;;;11.30;70.80;;;;;;4950001;28;20093;-83
2022/04/07 08:58:50;;;;;;;2.88;0.85;;;11.80;69.80;;;;;;4982536;28;20117;-85
2022/04/07 09:01:16;;;;;;;4.82;0.70;;;11.70;69.00;;;;;;4980633;28;20401;-83
2022/04/07 09:03:43;;;;;;;4.22;0.63;;;12.00;68.00;;;;;;4961264;28;20050;-87
2022/04/07 09:06:10;;;;;;;4.60;1.10;;;12.10;67.20;;;;;;4939137;28;20049;-84
2022/04/07 09:08:40;;;;;;;4.18;0.80;;;12.10;65.50;;;;;;4958876;28;20043;-85
2022/04/07 09:11:09;;;;;;;3.70;0.82;;;12.20;65.10;;;;;;4943852;28;20051;-85
2022/04/07 09:13:41;;;;;;;6.47;1.30;;;12.50;65.10;;;;;;4962180;28;20142;-84
2022/04/07 09:16:12;;;;;;;6.18;1.00;;;12.50;64.80;;;;;;4941592;29;20074;-85
2022/04/07 09:18:39;;;;;;;6.47;1.63;;;12.60;64.40;;;;;;4950714;29;20051;-86
2022/04/07 09:21:06;;;;;;;4.15;1.77;;;12.40;64.30;;;;;;4944819;29;20057;-84
2022/04/07 09:23:39;;;;;;;8.30;1.45;;;12.50;63.90;;;;;;4966202;28;20049;-85
2022/04/07 09:26:05;;;;;;;8.27;1.30;;;12.70;63.50;;;;;;4971298;28;20074;-86
2022/04/07 09:28:31;;;;;;;5.70;1.60;;;12.50;62.90;;;;;;4968646;28;20028;-87
2022/04/07 09:30:59;;;;;;;6.95;1.30;;;12.50;63.20;;;;;;4958304;28;20562;-87
2022/04/07 09:33:27;;;;;;;9.80;2.08;;;12.50;63.50;;;;;;4956873;28;20170;-85
2022/04/07 09:36:05;;;;;;;7.82;1.83;;;12.50;63.60;;;;;;4927012;28;20081;-84
2022/04/07 09:38:34;;;;;;;6.13;1.52;;;12.70;63.50;;;;;;4955701;29;20055;-86
2022/04/07 09:41:13;;;;;;;9.70;1.83;;;12.60;63.40;;;;;;4940455;28;20055;-87
2022/04/07 09:44:01;;;;;;;8.32;1.63;;;12.80;63.30;;;;;;4959815;28;20043;-86
2022/04/07 09:46:38;;;;;;;6.25;2.15;;;12.70;62.60;;;;;;4950037;29;20047;-86
2022/04/07 09:49:11;;;;;;;8.45;1.70;;;12.80;62.00;;;;;;4940468;29;20047;-86
2022/04/07 09:51:50;;;;;;;6.88;1.20;;;12.80;62.60;;;;;;4956699;29;20431;-86
2022/04/07 09:54:17;;;;;;;7.22;1.70;;;12.70;62.20;;;;;;4946771;28;20414;-85
2022/04/07 09:56:46;;;;;;;7.70;2.00;;;12.70;62.00;;;;;;4952351;29;20082;-84
2022/04/07 09:59:16;;;;;;;6.95;1.58;;;12.70;62.10;;;;;;4971170;28;20113;-86
2022/04/07 10:02:01;;;;;;;7.63;1.52;;;12.80;62.30;;;;;;4959307;28;20050;-85
2022/04/07 10:04:27;;;;;;;8.32;1.98;;;12.60;62.00;;;;;;4953898;28;20396;-86
2022/04/07 10:06:55;;;;;;;7.55;2.17;;;12.60;62.10;;;;;;4971674;28;20119;-85
2022/04/07 10:09:21;;;;;;;7.55;2.13;;;12.50;62.00;;;;;;4941381;28;20127;-85
2022/04/07 10:11:47;;;;;;;12.30;2.38;;;12.50;62.00;;;;;;4953301;29;20491;-85
2022/04/07 10:14:17;;;;;;;8.80;2.40;;;12.70;61.50;;;;;;4945350;29;20054;-86
2022/04/07 10:16:44;;;;;;;14.38;2.70;;;12.40;60.70;;;;;;4957885;28;20118;-85
2022/04/07 10:19:17;;;;;;;5.72;1.60;;;12.30;60.70;;;;;;4940283;29;20403;-86
2022/04/07 10:22:04;;;;;;;10.95;3.03;;;12.30;60.70;;;;;;4938911;28;20047;-84
2022/04/07 10:24:35;;;;;;;9.68;2.08;;;12.20;60.70;;;;;;4946282;28;20078;-86
2022/04/07 10:27:08;;;;;;;10.80;2.35;;;12.20;60.90;;;;;;4965161;28;20089;-85
2022/04/07 10:29:34;;;;;;;11.48;2.42;;;12.10;60.70;;;;;;4947255;29;20039;-85
2022/04/07 10:32:10;;;;;;;11.68;2.42;;;12.50;61.10;;;;;;4938583;29;20051;-86
2022/04/07 10:34:43;;;;;;;12.70;2.63;;;12.00;60.80;;;;;;4951718;28;20171;-86
2022/04/07 10:37:09;;;;;;;10.18;2.00;;;12.00;61.10;;;;;;4958529;28;20074;-86
2022/04/07 10:39:41;;;;;;;11.10;2.63;;;12.00;61.10;;;;;;4957366;28;20106;-85
2022/04/07 10:42:09;;;;;;;8.70;2.13;;;11.90;60.30;;;;;;4957935;28;20042;-86
2022/04/07 10:44:36;;;;;;;9.57;2.17;;;12.00;60.40;;;;;;4948368;29;20134;-85
2022/04/07 10:47:03;;;;;;;12.70;3.30;;;11.90;60.80;;;;;;4938828;29;20138;-87
2022/04/07 10:49:31;;;;;;;11.75;2.03;;;11.90;61.00;;;;;;4948288;28;20038;-85
2022/04/07 10:51:58;;;;;;;12.10;2.53;;;12.20;61.40;;;;;;4972090;28;20071;-86
2022/04/07 10:54:28;;;;;;;10.63;3.15;;;11.80;61.20;;;;;;4967484;28;20039;-85
2022/04/07 10:57:00;;;;;;;11.93;2.95;;;12.20;61.50;;;;;;4939163;29;20047;-86
2022/04/07 10:59:27;;;;;;;15.93;2.92;;;12.10;61.60;;;;;;4942968;29;20047;-86
2022/04/07 11:02:10;;;;;;;11.25;2.38;;;11.60;61.50;;;;;;4957966;28;20047;-86
2022/04/07 11:04:44;;;;;;;10.05;2.17;;;12.00;62.30;;;;;;4947165;29;20106;-87
2022/04/07 11:07:16;;;;;;;9.35;2.38;;;11.50;62.40;;;;;;4935294;29;20066;-87
2022/04/07 11:10:03;;;;;;;13.45;3.08;;;11.40;62.90;;;;;;4952770;28;20042;-85
2022/04/07 11:12:43;;;;;;;13.30;2.67;;;11.40;63.10;;;;;;4938438;28;20134;-87
2022/04/07 11:15:37;;;;;;;10.70;2.88;;;11.30;63.20;;;;;;4936821;29;20047;-86
2022/04/07 11:18:22;;;;;;;12.32;3.15;;;11.60;63.40;;;;;;4950969;28;20109;-89
2022/04/07 11:21:11;;;;;;;13.63;2.97;;;11.30;63.50;;;;;;4949619;28;20070;-87
2022/04/07 11:23:52;;;;;;;12.43;3.20;;;11.20;63.40;;;;;;4936040;28;20043;-84
2022/04/07 11:26:27;;;;;;;12.90;2.88;;;11.20;63.40;;;;;;4934565;29;20051;-85
2022/04/07 11:29:06;;;;;;;9.82;2.60;;;11.30;63.40;;;;;;4963405;28;20483;-85
2022/04/07 11:31:43;;;;;;;13.20;3.40;;;11.20;63.10;;;;;;4937221;28;20118;-86
2022/04/07 11:34:39;;;;;;;16.63;3.20;;;11.20;63.30;;;;;;4954662;28;20062;-86
2022/04/07 11:37:15;;;;;;;11.85;2.83;;;11.30;62.60;;;;;;4954879;28;20074;-85
2022/04/07 11:39:45;;;;;;;13.43;2.20;;;11.30;62.80;;;;;;4940915;28;20085;-85
2022/04/07 11:42:12;;;;;;;9.77;2.58;;;11.70;63.10;;;;;;4975093;28;20050;-85
2022/04/07 11:44:38;;;;;;;12.52;2.95;;;11.40;63.30;;;;;;4956997;28;20043;-85
2022/04/07 11:47:19;;;;;;;11.10;2.42;;;11.60;63.40;;;;;;4944315;28;20047;-85
2022/04/07 11:49:45;;;;;;;14.45;2.80;;;11.30;62.70;;;;;;4959694;28;20051;-85
2022/04/07 11:52:12;;;;;;;14.75;3.25;;;11.60;62.60;;;;;;4957818;28;20058;-86
2022/04/07 11:54:38;;;;;;;10.25;2.85;;;11.30;61.80;;;;;;4973946;28;20061;-87
2022/04/07 11:57:05;;;;;;;11.82;3.03;;;11.40;62.10;;;;;;4963402;28;20051;-86
2022/04/07 11:59:37;;;;;;;11.52;2.20;;;11.30;61.80;;;;;;4952217;28;20074;-87
2022/04/07 12:02:03;;;;;;;8.18;2.17;;;11.40;61.40;;;;;;4938962;28;20055;-87
2022/04/07 12:04:34;;;;;;;9.40;2.28;;;11.40;60.80;;;;;;4942502;28;20090;-86
2022/04/07 12:07:01;;;;;;;12.88;2.40;;;11.90;61.50;;;;;;4938047;29;20063;-86
2022/04/07 12:09:26;;;;;;;11.40;2.60;;;11.50;61.60;;;;;;4955483;28;20078;-84
2022/04/07 12:11:53;;;;;;;13.60;2.38;;;11.70;61.40;;;;;;4937549;29;20047;-84
2022/04/07 12:14:24;;;;;;;12.07;2.38;;;11.60;61.20;;;;;;4960110;28;20053;-83
2022/04/07 12:16:51;;;;;;;8.68;2.10;;;11.70;60.90;;;;;;4943179;28;20063;-85
2022/04/07 12:19:18;;;;;;;9.73;2.55;;;12.00;60.50;;;;;;4954316;28;20063;-86
2022/04/07 12:21:58;;;;;;;9.73;2.63;;;11.70;60.20;;;;;;4950705;28;20066;-85
2022/04/07 12:24:25;;;;;;;13.20;2.67;;;11.80;59.90;;;;;;4956520;28;20057;-85
2022/04/07 12:26:53;;;;;;;11.15;2.30;;;11.80;60.00;;;;;;4963315;28;20047;-85
2022/04/07 12:29:25;;;;;;;13.82;2.65;;;11.90;59.90;;;;;;4956674;28;20484;-86
2022/04/07 12:32:09;;;;;;;9.50;2.33;;;12.20;59.70;;;;;;4946506;29;20066;-83
2022/04/07 12:34:50;;;;;;;9.40;2.05;;;11.90;59.30;;;;;;4968472;28;20050;-83
2022/04/07 12:37:39;;;;;;;13.52;2.95;;;11.90;58.80;;;;;;4958921;28;20519;-84
2022/04/07 12:40:10;;;;;;;11.40;2.40;;;11.90;58.70;;;;;;4957251;28;20047;-85
2022/04/07 12:42:53;;;;;;;13.30;2.78;;;11.90;59.10;;;;;;4942595;28;20171;-88
2022/04/07 12:45:19;;;;;;;12.77;2.20;;;11.90;59.10;;;;;;4960197;28;20074;-84
2022/04/07 12:48:04;;;;;;;8.10;1.90;;;11.90;60.20;;;;;;4959317;28;20117;-85
2022/04/07 12:50:30;;;;;;;6.80;1.75;;;12.10;61.30;;;;;;4949773;29;20058;-86
2022/04/07 12:52:56;;;;;;;6.78;1.40;;;11.70;61.50;;;;;;4960174;28;20387;-85
2022/04/07 12:55:38;;;;;;;5.22;1.20;;;11.60;61.10;;;;;;4957069;28;20074;-86
2022/04/07 12:58:08;;;;;;;4.30;0.93;;;11.50;61.10;;;;;;4965063;28;20126;-84